Time;durP1;ratioP1;P1;durP2;ratioP2;P2;SDS_P1;SDS_P2;PMS_P1;PMS_P2;Temp;Humidity;BMP_temperature;BMP_pressure;BME280_temperature;BME280_humidity;BME280_pressure;Samples;Min_cycle;Max_cycle;Signal;HPM_P1;HPM_P2
2023/03/14 00:00:35;;;;;;;3.15;2.63;;;;;;;4.15;60.54;101512.16;4992044;28;20084;-85
2023/03/14 00:03:01;;;;;;;4.68;2.70;;;;;;;4.14;60.74;101515.59;4992255;28;20408;-85
2023/03/14 00:05:26;;;;;;;3.60;2.95;;;;;;;4.21;60.91;101532.56;4975649;28;20030;-85
2023/03/14 00:07:52;;;;;;;3.65;2.30;;;;;;;4.23;61.10;101530.03;4991504;28;20022;-85
2023/03/14 00:10:17;;;;;;;3.63;2.35;;;;;;;4.20;60.85;101530.03;4991503;28;20057;-84
2023/03/14 00:12:43;;;;;;;3.40;2.30;;;;;;;4.11;61.45;101524.97;4959430;28;20034;-85
2023/03/14 00:15:09;;;;;;;5.85;3.08;;;;;;;4.02;61.71;101516.50;4959301;28;20041;-84
2023/03/14 00:17:35;;;;;;;3.70;2.25;;;;;;;3.87;62.19;101508.09;4975525;28;20151;-85
2023/03/14 00:20:18;;;;;;;4.25;3.38;;;;;;;3.89;62.48;101529.41;4991624;28;20484;-84
2023/03/14 00:22:44;;;;;;;14.25;3.22;;;;;;;3.64;61.63;101488.66;4991465;28;20507;-84
2023/03/14 00:25:10;;;;;;;5.20;3.45;;;;;;;3.85;62.32;101527.75;4975017;28;20026;-85
2023/03/14 00:27:36;;;;;;;7.30;3.03;;;;;;;3.84;62.09;101510.69;4975148;28;20026;-84
2023/03/14 00:30:02;;;;;;;5.85;2.88;;;;;;;3.77;62.17;101493.69;4991406;28;20036;-85
2023/03/14 00:32:27;;;;;;;8.10;3.17;;;;;;;3.82;62.29;101507.28;4991400;28;20109;-84
2023/03/14 00:34:53;;;;;;;2.60;2.20;;;;;;;3.81;62.85;101515.81;4991039;28;20056;-84
2023/03/14 00:37:18;;;;;;;3.92;2.45;;;;;;;3.65;63.19;101508.25;4991252;28;20026;-84
2023/03/14 00:39:44;;;;;;;3.20;2.28;;;;;;;3.69;62.99;101502.25;4974450;28;20503;-85
2023/03/14 00:42:09;;;;;;;2.95;2.47;;;;;;;3.59;62.48;101477.56;4974674;28;20045;-84
2023/03/14 00:44:35;;;;;;;2.88;1.98;;;;;;;3.58;62.57;101495.50;4974894;28;20092;-84
2023/03/14 00:47:00;;;;;;;4.72;3.15;;;;;;;3.51;63.36;101504.91;4974761;28;20113;-84
2023/03/14 00:49:26;;;;;;;2.95;2.65;;;;;;;3.45;63.76;101507.53;4958802;28;20034;-84
2023/03/14 00:51:51;;;;;;;2.15;1.77;;;;;;;3.42;64.17;101485.34;4974473;28;20034;-84
2023/03/14 00:54:18;;;;;;;4.10;3.60;;;;;;;3.28;63.95;101479.47;4990697;28;20030;-84
2023/03/14 00:56:43;;;;;;;3.25;2.95;;;;;;;3.36;63.46;101502.47;4991298;28;20130;-84
2023/03/14 00:59:09;;;;;;;2.20;1.95;;;;;;;3.36;63.78;101502.47;4974776;28;20031;-85
2023/03/14 01:01:34;;;;;;;3.13;2.53;;;;;;;3.33;63.62;101505.00;4974585;28;20076;-84
2023/03/14 01:04:00;;;;;;;3.00;2.17;;;;;;;3.24;64.00;101508.47;4974430;28;20034;-85
2023/03/14 01:06:26;;;;;;;2.60;1.98;;;;;;;3.30;63.77;101520.38;4990892;28;20478;-84
2023/03/14 01:08:52;;;;;;;3.80;2.17;;;;;;;3.09;63.92;101513.66;4990394;28;20038;-84
2023/03/14 01:11:20;;;;;;;2.47;1.58;;;;;;;3.13;64.40;101515.34;4974639;28;20026;-84
2023/03/14 01:13:45;;;;;;;6.35;3.30;;;;;;;3.08;64.22;101520.47;4974242;28;20480;-84
2023/03/14 01:16:11;;;;;;;2.28;2.08;;;;;;;2.92;65.05;101515.41;4958309;28;20041;-85
2023/03/14 01:18:37;;;;;;;7.47;2.83;;;;;;;2.87;65.08;101512.88;4990528;28;20031;-84
2023/03/14 01:21:04;;;;;;;5.63;2.97;;;;;;;2.77;65.42;101501.00;4974457;28;20034;-84
2023/03/14 01:23:29;;;;;;;3.70;2.80;;;;;;;2.82;65.18;101514.59;4974100;28;20022;-84
2023/03/14 01:25:55;;;;;;;3.22;2.30;;;;;;;2.64;65.49;101496.75;4974166;28;20441;-84
2023/03/14 01:28:20;;;;;;;2.60;2.28;;;;;;;2.58;65.32;101485.72;4958151;28;20026;-84
2023/03/14 01:30:45;;;;;;;1.92;1.60;;;;;;;2.70;65.32;101505.25;4990257;28;20034;-84
2023/03/14 01:33:12;;;;;;;2.83;2.20;;;;;;;2.70;65.10;101486.53;4974290;28;20030;-84
2023/03/14 01:35:38;;;;;;;3.50;2.00;;;;;;;2.62;65.30;101485.69;4989946;28;20547;-85
2023/03/14 01:38:03;;;;;;;5.18;2.33;;;;;;;2.71;65.09;101501.00;4989711;28;20030;-84
2023/03/14 01:40:29;;;;;;;3.88;2.45;;;;;;;2.76;64.76;101512.06;4991821;28;20382;-84
2023/03/14 01:42:58;;;;;;;2.50;1.83;;;;;;;2.53;64.77;101487.41;4957958;28;20027;-84
2023/03/14 01:45:57;;;;;;;1.33;0.88;;;;;;;2.67;64.88;101507.84;4973700;28;20027;-84
2023/03/14 01:48:23;;;;;;;2.83;2.33;;;;;;;2.59;65.11;101495.06;4991441;28;20514;-85
2023/03/14 01:50:49;;;;;;;2.35;1.45;;;;;;;2.51;65.56;101481.47;4990032;28;20026;-84
2023/03/14 01:53:14;;;;;;;1.60;1.40;;;;;;;2.53;65.55;101464.41;4973656;28;20037;-84
2023/03/14 01:55:40;;;;;;;2.47;1.88;;;;;;;2.64;65.34;101473.75;4973776;28;20041;-85
2023/03/14 01:58:05;;;;;;;3.10;1.70;;;;;;;2.58;65.29;101467.81;4957928;28;20030;-84
2023/03/14 02:00:31;;;;;;;2.38;2.17;;;;;;;2.67;64.99;101458.44;4973966;28;20543;-84
2023/03/14 02:03:06;;;;;;;2.03;1.77;;;;;;;2.60;65.30;101452.50;4973754;28;20022;-84
2023/03/14 02:05:33;;;;;;;2.15;1.95;;;;;;;2.62;65.32;101439.72;4973674;28;20062;-84
2023/03/14 02:07:59;;;;;;;4.35;2.25;;;;;;;2.81;65.11;101462.63;4957781;28;20022;-84
2023/03/14 02:10:32;;;;;;;3.03;1.83;;;;;;;2.86;65.11;101462.63;4990162;28;20038;-85
2023/03/14 02:12:59;;;;;;;3.50;2.05;;;;;;;2.96;64.41;101461.75;4974682;28;20507;-84
2023/03/14 02:15:25;;;;;;;2.72;2.03;;;;;;;2.76;64.70;101430.31;4977399;28;20120;-84
2023/03/14 02:17:50;;;;;;;3.17;2.50;;;;;;;2.95;64.48;101449.81;4993567;28;20037;-85
2023/03/14 02:20:25;;;;;;;1.73;1.45;;;;;;;2.96;64.71;101454.06;4977387;28;20408;-84
2023/03/14 02:22:51;;;;;;;2.20;1.80;;;;;;;2.97;64.81;101443.00;4993570;28;20045;-85
2023/03/14 02:25:19;;;;;;;2.35;1.95;;;;;;;2.86;64.84;101422.59;4977778;28;20035;-84
2023/03/14 02:27:44;;;;;;;1.63;1.50;;;;;;;3.00;64.79;101447.22;4977472;28;20030;-84
2023/03/14 02:30:13;;;;;;;3.03;1.88;;;;;;;3.03;64.71;101450.59;4961395;28;20511;-84
2023/03/14 02:32:40;;;;;;;4.22;2.70;;;;;;;2.80;64.84;101408.97;4961344;28;20522;-84
2023/03/14 02:35:08;;;;;;;2.33;2.05;;;;;;;3.02;64.31;101441.25;4976669;28;20050;-84
2023/03/14 02:37:41;;;;;;;2.10;1.60;;;;;;;2.95;64.87;101444.72;4994020;28;20480;-84
2023/03/14 02:40:07;;;;;;;4.82;2.38;;;;;;;2.87;64.76;101428.56;4994055;28;20142;-84
2023/03/14 02:42:32;;;;;;;3.03;2.72;;;;;;;2.92;65.07;101444.69;4961263;28;20026;-84
2023/03/14 02:45:21;;;;;;;3.80;2.03;;;;;;;2.93;65.04;101435.31;4961108;28;20526;-85
2023/03/14 02:47:52;;;;;;;2.97;2.05;;;;;;;2.86;65.12;101421.75;4994395;28;20034;-84
2023/03/14 02:50:20;;;;;;;2.55;1.98;;;;;;;2.82;64.93;101423.44;4961234;28;20415;-84
2023/03/14 02:52:46;;;;;;;1.30;1.00;;;;;;;2.90;64.86;101436.19;4960841;28;20114;-84
2023/03/14 02:55:11;;;;;;;2.53;1.98;;;;;;;2.73;65.22;101423.47;4960799;28;20034;-84
2023/03/14 02:57:37;;;;;;;2.13;1.67;;;;;;;2.80;65.40;101437.94;4976749;28;20038;-85
2023/03/14 03:00:06;;;;;;;2.17;1.67;;;;;;;2.70;65.50;101425.22;4976959;28;20057;-84
2023/03/14 03:02:31;;;;;;;1.70;1.52;;;;;;;2.78;65.93;101446.47;4977162;28;20081;-84
2023/03/14 03:04:57;;;;;;;3.53;1.92;;;;;;;2.74;65.81;101434.53;4976433;28;20469;-84
2023/03/14 03:07:23;;;;;;;1.98;1.77;;;;;;;2.73;65.56;101422.63;4976863;28;20034;-84
2023/03/14 03:09:48;;;;;;;3.10;2.03;;;;;;;2.79;66.10;101436.25;4976414;28;20121;-84
2023/03/14 03:12:14;;;;;;;2.90;2.08;;;;;;;2.62;65.87;101409.91;4960510;28;20444;-84
2023/03/14 03:14:39;;;;;;;3.60;2.67;;;;;;;2.66;66.23;101415.88;4960328;28;20026;-84
2023/03/14 03:17:05;;;;;;;4.28;2.30;;;;;;;2.46;66.61;101403.13;4976647;28;20034;-85
2023/03/14 03:19:31;;;;;;;4.38;3.58;;;;;;;2.54;66.85;101443.13;4976327;28;20023;-84
2023/03/14 03:21:57;;;;;;;3.40;2.22;;;;;;;2.50;67.11;101443.16;4960475;28;20045;-84
2023/03/14 03:24:23;;;;;;;3.72;1.98;;;;;;;2.53;66.76;101446.53;4992181;28;20023;-84
2023/03/14 03:26:48;;;;;;;5.47;3.38;;;;;;;2.51;66.85;101439.75;4991575;28;20034;-84
2023/03/14 03:29:14;;;;;;;3.33;1.80;;;;;;;2.45;66.84;101425.28;4976506;28;20031;-84
2023/03/14 03:31:39;;;;;;;3.13;2.38;;;;;;;2.55;67.07;101455.03;4960168;28;20030;-84
2023/03/14 03:34:05;;;;;;;3.25;2.95;;;;;;;2.55;66.81;101454.19;4975885;28;20030;-84
2023/03/14 03:36:30;;;;;;;7.60;2.97;;;;;;;2.65;66.45;101458.41;4976405;28;20030;-84
2023/03/14 03:38:56;;;;;;;4.85;2.55;;;;;;;2.43;66.96;101438.91;4976479;28;20042;-84
2023/03/14 03:41:21;;;;;;;8.65;2.58;;;;;;;2.49;67.33;101449.97;4960069;28;20034;-84
2023/03/14 03:43:47;;;;;;;2.15;1.95;;;;;;;2.38;66.79;101438.09;4992646;28;20475;-84
2023/03/14 03:46:12;;;;;;;2.05;1.85;;;;;;;2.36;66.60;101427.88;4992327;28;20026;-84
2023/03/14 03:48:38;;;;;;;3.75;2.53;;;;;;;2.29;66.76;101432.13;4975778;28;20106;-84
2023/03/14 03:51:03;;;;;;;3.60;3.05;;;;;;;2.29;66.62;101415.97;4976200;28;20685;-84
2023/03/14 03:53:29;;;;;;;2.22;1.88;;;;;;;2.33;67.02;101432.13;4991993;28;20146;-84
2023/03/14 03:55:54;;;;;;;2.35;1.85;;;;;;;2.34;66.62;101436.38;4992041;28;20034;-84
2023/03/14 03:58:20;;;;;;;4.85;2.83;;;;;;;2.33;66.91;101452.56;4993338;28;20476;-83
2023/03/14 04:00:45;;;;;;;4.18;2.55;;;;;;;2.40;66.82;101447.44;4992002;28;20030;-83
2023/03/14 04:03:11;;;;;;;2.95;2.67;;;;;;;2.35;66.69;101431.25;4975524;28;20393;-83
2023/03/14 04:05:36;;;;;;;1.75;0.95;;;;;;;2.45;66.45;101453.38;4959632;28;20034;-82
2023/03/14 04:08:02;;;;;;;2.85;2.50;;;;;;;2.51;66.48;101445.69;4975708;28;20026;-83
2023/03/14 04:10:28;;;;;;;3.10;2.22;;;;;;;2.55;66.38;101424.38;4975754;28;20026;-83
2023/03/14 04:12:54;;;;;;;6.03;4.18;;;;;;;2.83;66.11;101449.84;4991517;28;20030;-84
2023/03/14 04:15:19;;;;;;;2.28;2.08;;;;;;;2.76;65.54;101441.38;4975460;28;20033;-84
2023/03/14 04:17:44;;;;;;;5.30;3.15;;;;;;;2.72;65.44;101420.94;4975241;28;20031;-84
2023/03/14 04:20:11;;;;;;;4.97;2.83;;;;;;;2.89;64.85;101434.50;4975492;28;20027;-84
2023/03/14 04:22:37;;;;;;;2.97;2.10;;;;;;;2.80;64.59;101414.09;4991338;28;20034;-83
2023/03/14 04:25:03;;;;;;;4.47;3.45;;;;;;;2.99;64.47;101425.94;4989647;28;20022;-86
2023/03/14 04:27:29;;;;;;;2.85;1.77;;;;;;;2.97;64.54;101407.19;4991610;28;20042;-84
2023/03/14 04:29:54;;;;;;;3.60;2.85;;;;;;;2.96;64.64;101415.72;4991397;28;20042;-85
2023/03/14 04:32:19;;;;;;;4.63;3.47;;;;;;;2.82;64.97;101412.38;4974605;28;20468;-86
2023/03/14 04:34:45;;;;;;;3.28;2.33;;;;;;;2.78;65.41;101426.03;4958222;28;20061;-81
2023/03/14 04:37:10;;;;;;;3.72;2.80;;;;;;;2.55;65.74;101411.63;4974545;28;20033;-92
2023/03/14 04:39:36;;;;;;;2.20;1.98;;;;;;;2.51;66.14;101426.97;4990933;28;20080;-84
2023/03/14 04:42:01;;;;;;;2.50;2.13;;;;;;;2.36;66.35;101422.78;4974906;28;20033;-86
2023/03/14 04:44:27;;;;;;;3.83;3.42;;;;;;;2.27;66.62;101425.34;4958685;28;20038;-87
2023/03/14 04:46:52;;;;;;;5.28;3.17;;;;;;;2.20;66.87;101431.31;4974384;28;20026;-86
2023/03/14 04:49:18;;;;;;;5.22;2.65;;;;;;;2.18;67.00;101427.91;4990687;28;20026;-86
2023/03/14 04:51:43;;;;;;;4.03;2.70;;;;;;;2.11;66.64;101429.63;4972095;28;20484;-89
2023/03/14 04:54:09;;;;;;;4.90;3.60;;;;;;;2.01;66.89;101430.47;4974864;28;20496;-90
2023/03/14 04:56:34;;;;;;;2.92;2.53;;;;;;;1.87;67.44;101435.59;4975241;28;20096;-89
2023/03/14 04:59:00;;;;;;;7.50;4.13;;;;;;;1.81;67.60;101443.25;4990828;28;20411;-89
2023/03/14 05:01:25;;;;;;;4.60;2.72;;;;;;;1.84;68.21;101443.22;4974489;28;20022;-87
2023/03/14 05:03:51;;;;;;;5.93;2.03;;;;;;;1.79;68.09;101447.50;4957627;28;20037;-88
2023/03/14 05:06:16;;;;;;;3.33;2.55;;;;;;;1.84;68.15;101440.69;4973938;28;20037;-88
2023/03/14 05:08:41;;;;;;;5.15;2.88;;;;;;;1.82;67.94;101442.38;4958211;28;20026;-89
2023/03/14 05:11:09;;;;;;;2.08;1.85;;;;;;;1.71;68.00;101410.94;4956972;28;20041;-94
2023/03/14 05:13:35;;;;;;;4.45;3.22;;;;;;;1.92;67.65;101440.69;4957926;28;20022;-87
2023/03/14 05:16:06;;;;;;;2.28;2.05;;;;;;;1.93;68.10;101437.28;4974672;28;20054;-91
2023/03/14 05:18:32;;;;;;;22.00;2.75;;;;;;;2.01;67.55;101428.78;4991807;28;20023;-89
2023/03/14 05:20:57;;;;;;;5.82;3.72;;;;;;;2.04;67.94;101425.34;4974953;28;20041;-90
2023/03/14 05:23:23;;;;;;;3.53;3.17;;;;;;;2.05;67.91;101411.75;4958488;28;21359;-94
2023/03/14 05:25:48;;;;;;;3.53;2.65;;;;;;;2.06;67.83;101403.22;4958929;28;20034;-91
2023/03/14 05:28:13;;;;;;;4.32;3.92;;;;;;;2.14;67.54;101398.13;4958388;28;20412;-91
2023/03/14 05:30:39;;;;;;;4.32;3.13;;;;;;;2.14;68.44;101395.56;4974670;28;20034;-88
2023/03/14 05:33:04;;;;;;;3.55;2.22;;;;;;;2.28;68.00;101391.28;4957478;28;20041;-87
2023/03/14 05:35:30;;;;;;;5.78;4.63;;;;;;;2.50;67.32;101415.91;4958285;28;20054;-86
2023/03/14 05:37:55;;;;;;;3.53;2.40;;;;;;;2.48;66.91;101397.19;4973769;28;20389;-87
2023/03/14 05:40:21;;;;;;;5.93;4.18;;;;;;;2.62;66.64;101409.06;4973427;28;20034;-91
2023/03/14 05:42:46;;;;;;;5.78;4.55;;;;;;;2.73;66.35;101415.81;4974018;28;20035;-87
2023/03/14 05:45:12;;;;;;;5.00;3.78;;;;;;;2.88;65.98;101418.31;4974250;28;20034;-87
2023/03/14 05:47:37;;;;;;;3.00;2.45;;;;;;;2.93;65.92;101410.63;4957598;28;20034;-85
2023/03/14 05:50:03;;;;;;;5.93;3.50;;;;;;;3.01;65.37;101408.03;4973649;28;20142;-83
2023/03/14 05:52:28;;;;;;;9.60;6.80;;;;;;;3.08;65.40;101410.53;4989380;28;20495;-86
2023/03/14 05:54:54;;;;;;;5.75;4.15;;;;;;;3.26;65.55;101421.53;4973790;28;20085;-87
2023/03/14 05:57:19;;;;;;;8.43;4.53;;;;;;;3.27;65.10;101423.22;4973272;28;20407;-86
2023/03/14 05:59:45;;;;;;;8.10;5.22;;;;;;;3.35;65.09;101424.03;4957166;28;20038;-89
2023/03/14 06:02:10;;;;;;;7.20;4.95;;;;;;;3.32;65.42;101413.81;4973370;28;20035;-84
2023/03/14 06:04:36;;;;;;;9.05;5.13;;;;;;;3.42;64.97;101421.41;4990350;28;20034;-92
2023/03/14 06:07:01;;;;;;;7.90;5.57;;;;;;;3.64;63.81;101419.56;4960862;28;20050;-88
2023/03/14 06:09:26;;;;;;;6.65;4.05;;;;;;;3.55;64.13;101422.19;4973698;28;20023;-93
2023/03/14 06:11:52;;;;;;;5.20;3.30;;;;;;;3.58;63.56;101406.81;4957217;28;20026;-89
2023/03/14 06:14:17;;;;;;;25.48;4.32;;;;;;;3.54;63.93;101397.47;4978642;28;20546;-85
2023/03/14 06:16:43;;;;;;;6.90;4.97;;;;;;;3.62;63.68;101411.03;4984583;28;20022;-94
2023/03/14 06:19:08;;;;;;;5.90;2.63;;;;;;;3.55;63.77;101400.88;4974185;28;20037;-92
2023/03/14 06:21:34;;;;;;;3.28;2.97;;;;;;;3.66;63.57;101415.28;4973466;28;20416;-85
2023/03/14 06:23:59;;;;;;;4.55;2.95;;;;;;;3.54;64.06;101405.13;4991443;28;20026;-81
2023/03/14 06:26:25;;;;;;;2.90;2.67;;;;;;;3.71;63.89;101408.38;4995204;28;20038;-85
2023/03/14 06:28:50;;;;;;;6.35;4.18;;;;;;;3.42;63.49;101352.34;4976932;28;20039;-86
2023/03/14 06:31:16;;;;;;;5.60;3.95;;;;;;;3.74;63.69;101387.91;4988349;28;20416;-88
2023/03/14 06:33:42;;;;;;;7.18;4.20;;;;;;;3.93;63.65;101413.31;4991687;28;20488;-83
2023/03/14 06:36:08;;;;;;;5.18;4.15;;;;;;;4.08;63.11;101397.81;4962204;28;20061;-85
2023/03/14 06:38:33;;;;;;;4.90;4.40;;;;;;;4.23;62.43;101407.94;4998087;28;20030;-84
2023/03/14 06:41:06;;;;;;;7.90;3.75;;;;;;;4.35;61.93;101406.09;4997173;28;20034;-84
2023/03/14 06:43:31;;;;;;;7.95;4.30;;;;;;;4.18;62.18;101390.91;4988238;28;20033;-84
2023/03/14 06:45:56;;;;;;;7.65;4.93;;;;;;;4.42;62.40;101410.28;4995892;28;20030;-90
2023/03/14 06:48:22;;;;;;;3.90;3.45;;;;;;;4.50;61.59;101388.81;4975452;28;20026;-94
2023/03/14 06:50:48;;;;;;;4.72;3.40;;;;;;;4.67;61.22;101404.00;4974497;28;20036;-88
2023/03/14 06:53:13;;;;;;;4.95;3.42;;;;;;;4.61;61.03;101368.19;4958961;28;20032;-91
2023/03/14 06:55:39;;;;;;;4.80;2.92;;;;;;;4.98;60.35;101411.31;4996343;28;20415;-90
2023/03/14 06:58:07;;;;;;;5.32;4.32;;;;;;;5.10;59.80;101416.25;4963570;28;20026;-93
2023/03/14 07:00:33;;;;;;;8.98;4.25;;;;;;;4.98;59.03;101375.41;4979445;28;20041;-89
2023/03/14 07:02:58;;;;;;;4.50;3.58;;;;;;;5.26;59.02;101412.63;4976484;28;20026;-90
2023/03/14 07:05:24;;;;;;;5.70;3.30;;;;;;;5.23;59.27;101381.03;4978091;28;20178;-86
2023/03/14 07:07:49;;;;;;;11.40;3.45;;;;;;;5.47;58.97;101409.72;4993728;28;20061;-89
2023/03/14 07:10:15;;;;;;;4.28;3.70;;;;;;;5.64;58.51;101403.50;4977117;28;20037;-92
2023/03/14 07:12:40;;;;;;;5.43;3.47;;;;;;;5.72;57.92;101396.53;4982077;28;20027;-90
2023/03/14 07:15:06;;;;;;;4.00;3.08;;;;;;;5.68;58.03;101380.31;5009778;28;20034;-90
2023/03/14 07:17:32;;;;;;;3.72;3.13;;;;;;;5.98;58.49;101408.94;4962976;28;20022;-91
2023/03/14 07:19:59;;;;;;;5.60;4.03;;;;;;;5.98;58.24;101385.81;4993966;28;20038;-93
2023/03/14 07:22:24;;;;;;;3.95;2.92;;;;;;;6.06;57.62;101389.09;4976977;28;20036;-93
2023/03/14 07:24:50;;;;;;;5.35;3.60;;;;;;;6.15;57.16;101382.94;4980612;28;20520;-93
2023/03/14 07:27:15;;;;;;;4.97;3.58;;;;;;;6.28;57.67;101384.41;4976733;28;20022;-92
2023/03/14 07:29:41;;;;;;;4.53;3.40;;;;;;;6.25;56.08;101364.75;4983865;28;20030;-86
2023/03/14 07:32:07;;;;;;;6.43;3.67;;;;;;;6.27;56.12;101380.13;4992372;28;20030;-83
2023/03/14 07:34:33;;;;;;;4.82;3.53;;;;;;;6.39;55.55;101392.78;4975263;28;20050;-91
2023/03/14 07:36:58;;;;;;;5.32;3.90;;;;;;;6.57;54.98;101402.66;4975952;28;20030;-88
2023/03/14 07:39:24;;;;;;;5.05;2.83;;;;;;;6.63;54.76;101395.72;4985398;28;20038;-84
2023/03/14 07:41:49;;;;;;;16.13;4.55;;;;;;;6.58;54.92;101388.94;4997704;28;20050;-85
2023/03/14 07:44:15;;;;;;;4.68;3.15;;;;;;;6.78;55.21;101390.25;4974499;28;20077;-86
2023/03/14 07:46:40;;;;;;;9.93;4.13;;;;;;;6.84;54.09;101374.69;4963951;28;20412;-88
2023/03/14 07:49:05;;;;;;;3.25;2.78;;;;;;;7.12;53.54;101378.38;5000069;28;20034;-87
2023/03/14 07:51:31;;;;;;;4.53;2.92;;;;;;;7.07;53.68;101371.63;5002938;28;20034;-87
2023/03/14 07:53:56;;;;;;;5.20;3.88;;;;;;;7.28;53.01;101367.72;4980174;28;20026;-89
2023/03/14 07:56:22;;;;;;;5.35;3.20;;;;;;;7.29;53.27;101353.97;5003798;28;20026;-88
2023/03/14 07:58:47;;;;;;;4.75;4.13;;;;;;;7.28;52.67;101331.69;4977406;28;20440;-86
2023/03/14 08:01:13;;;;;;;14.73;9.02;;;;;;;7.39;51.89;101337.44;4973173;28;20037;-89
2023/03/14 08:03:38;;;;;;;5.13;4.05;;;;;;;7.33;52.01;101316.97;4978002;28;20484;-87
2023/03/14 08:06:04;;;;;;;6.85;4.00;;;;;;;7.47;52.54;101335.47;4965301;28;20053;-86
2023/03/14 08:08:29;;;;;;;4.97;4.00;;;;;;;7.56;52.05;101321.53;5001763;28;20030;-91
2023/03/14 08:10:55;;;;;;;4.53;3.63;;;;;;;7.61;52.68;101323.13;4980128;28;20033;-89
2023/03/14 08:13:21;;;;;;;7.63;5.10;;;;;;;7.68;52.98;101329.81;4984718;28;20039;-89
2023/03/14 08:15:50;;;;;;;8.25;4.90;;;;;;;7.48;53.72;101316.59;4960672;28;20118;-90
2023/03/14 08:18:16;;;;;;;5.38;3.83;;;;;;;7.55;54.36;101317.28;4984544;28;20061;-93
2023/03/14 08:20:41;;;;;;;4.43;3.75;;;;;;;7.55;53.83;101314.69;4976758;28;20026;-92
2023/03/14 08:23:07;;;;;;;5.72;4.13;;;;;;;7.50;53.86;101301.97;4960744;28;20081;-90
2023/03/14 08:25:32;;;;;;;3.65;3.28;;;;;;;7.75;55.43;101282.41;4975339;28;20030;-89
2023/03/14 08:27:58;;;;;;;4.82;3.78;;;;;;;8.00;53.94;101313.50;4999253;28;20581;-93
2023/03/14 08:30:23;;;;;;;5.05;3.80;;;;;;;8.50;56.37;101316.41;4979296;28;20034;-91
2023/03/14 08:32:49;;;;;;;7.57;3.70;;;;;;;8.74;52.08;101309.66;4987552;28;20030;-94
2023/03/14 08:35:15;;;;;;;6.78;4.07;;;;;;;9.18;52.21;101310.03;4958582;28;21114;-91
2023/03/14 08:37:41;;;;;;;6.20;4.55;;;;;;;9.31;50.42;101295.81;4981354;28;20507;-86
2023/03/14 08:40:08;;;;;;;7.75;6.10;;;;;;;9.52;49.63;101303.75;4982605;28;20431;-88
2023/03/14 08:42:34;;;;;;;5.68;4.13;;;;;;;9.65;48.70;101302.44;4987089;28;20062;-89
2023/03/14 08:44:59;;;;;;;6.82;5.28;;;;;;;9.45;49.46;101301.38;4961088;28;20125;-91
2023/03/14 08:47:25;;;;;;;8.18;5.50;;;;;;;9.36;50.57;101288.78;4974957;28;20050;-94
2023/03/14 08:49:50;;;;;;;6.25;5.47;;;;;;;9.20;50.34;101269.50;4981306;28;20113;-89
2023/03/14 08:52:16;;;;;;;6.47;4.93;;;;;;;9.35;50.55;101278.50;4992835;28;20492;-93
2023/03/14 08:54:45;;;;;;;7.75;6.30;;;;;;;9.47;50.60;101286.69;4991751;28;20052;-89
2023/03/14 08:57:10;;;;;;;7.47;4.65;;;;;;;9.53;49.74;101284.75;5006685;28;20033;-92
2023/03/14 08:59:36;;;;;;;6.13;4.65;;;;;;;9.51;49.80;101276.22;4973178;28;20038;-91
2023/03/14 09:02:03;;;;;;;6.85;4.55;;;;;;;9.47;49.76;101268.59;4965523;28;20028;-94
2023/03/14 09:04:29;;;;;;;6.55;3.97;;;;;;;9.45;49.38;101262.66;4991960;28;20039;-88
2023/03/14 09:06:55;;;;;;;5.40;3.60;;;;;;;9.51;49.05;101266.75;4995381;28;20431;-89
2023/03/14 09:09:21;;;;;;;3.83;3.45;;;;;;;9.44;48.87;101258.38;5008686;28;20476;-90
2023/03/14 09:11:47;;;;;;;3.13;2.30;;;;;;;9.39;47.96;101237.03;4982622;28;20023;-91
2023/03/14 09:14:12;;;;;;;4.78;3.45;;;;;;;9.52;47.89;101246.91;4994724;28;20030;-89
2023/03/14 09:16:37;;;;;;;3.53;3.22;;;;;;;9.61;48.97;101246.59;4984155;28;20023;-92
2023/03/14 09:19:03;;;;;;;3.88;3.22;;;;;;;9.74;47.94;101237.53;4966249;28;20033;-86
2023/03/14 09:21:28;;;;;;;6.20;4.30;;;;;;;9.93;47.95;101230.81;4989253;28;20042;-85
2023/03/14 09:23:54;;;;;;;5.63;3.58;;;;;;;9.96;47.29;101225.53;4990467;28;20032;-88
2023/03/14 09:26:20;;;;;;;5.88;4.50;;;;;;;10.19;47.62;101241.91;4988602;28;20041;-94
2023/03/14 09:28:45;;;;;;;6.53;3.65;;;;;;;10.17;46.67;101215.28;4969597;28;20073;-93
2023/03/14 09:31:11;;;;;;;4.30;3.20;;;;;;;10.34;47.29;101213.78;4970420;28;20420;-87
2023/03/14 09:33:37;;;;;;;3.90;2.85;;;;;;;10.39;47.45;101211.00;4978328;28;20080;-92
2023/03/14 09:36:02;;;;;;;4.57;3.17;;;;;;;10.41;46.97;101191.06;4980418;28;20049;-85
2023/03/14 09:38:28;;;;;;;4.13;3.35;;;;;;;10.36;46.91;101180.09;4967082;28;20037;-91
2023/03/14 09:40:53;;;;;;;5.07;3.45;;;;;;;10.20;47.38;101150.50;4955974;28;20397;-94
2023/03/14 09:43:19;;;;;;;4.35;3.28;;;;;;;10.42;47.62;101169.50;4979678;28;20053;-93
2023/03/14 09:45:45;;;;;;;5.43;3.85;;;;;;;10.73;47.32;101173.44;4975824;28;20034;-94
2023/03/14 09:48:21;;;;;;;5.80;4.18;;;;;;;10.70;47.54;101178.72;4969176;28;20026;-94
2023/03/14 09:50:54;;;;;;;4.47;3.70;;;;;;;10.65;47.06;101175.50;4987061;28;20029;-95
2023/03/14 09:53:31;;;;;;;;;;;;;;;10.74;47.89;101177.72;4976164;28;20078;-91
2023/03/14 09:55:57;;;;;;;6.40;4.70;;;;;;;10.85;47.46;101183.28;5002258;28;19957;-90
2023/03/14 09:58:23;;;;;;;7.05;4.57;;;;;;;10.91;46.61;101172.66;4975625;28;20080;-89
2023/03/14 10:00:53;;;;;;;4.55;3.25;;;;;;;10.96;45.97;101155.22;4990378;28;20037;-93
2023/03/14 10:03:26;;;;;;;21.10;15.65;;;;;;;11.29;46.56;101175.38;4988950;28;20076;-89
2023/03/14 10:05:52;;;;;;;8.80;3.85;;;;;;;11.37;46.83;101156.03;4970884;28;20123;-91
2023/03/14 10:08:17;;;;;;;4.10;3.17;;;;;;;11.46;46.41;101157.38;4977292;28;20030;-95
2023/03/14 10:10:43;;;;;;;6.40;3.30;;;;;;;11.38;45.95;101138.72;4982719;28;20057;-92
2023/03/14 10:13:15;;;;;;;2.42;2.22;;;;;;;11.39;45.88;101123.13;4992817;28;20022;-91
2023/03/14 10:15:40;;;;;;;4.35;3.13;;;;;;;11.62;46.12;101137.66;5010221;28;20071;-87
2023/03/14 10:18:13;;;;;;;4.53;3.45;;;;;;;11.75;45.85;101130.16;5008216;28;20026;-86
2023/03/14 10:20:43;;;;;;;4.70;3.30;;;;;;;11.83;45.27;101127.25;5009287;28;20108;-88
2023/03/14 10:23:11;;;;;;;5.40;3.78;;;;;;;12.01;45.19;101126.41;4993099;28;20053;-90
2023/03/14 10:25:40;;;;;;;4.05;3.38;;;;;;;12.06;45.41;101124.41;5009818;28;20026;-88
2023/03/14 10:28:23;;;;;;;4.50;3.28;;;;;;;12.19;44.91;101120.34;4992862;28;20061;-86
2023/03/14 10:30:48;;;;;;;3.90;2.78;;;;;;;12.28;44.79;101108.66;4993173;28;20029;-92
2023/03/14 10:33:17;;;;;;;5.18;3.63;;;;;;;12.75;44.49;101113.28;4992381;28;20092;-93
2023/03/14 10:35:42;;;;;;;7.10;4.47;;;;;;;12.72;44.84;101114.28;5003908;28;20086;-93
2023/03/14 10:38:14;;;;;;;6.70;4.03;;;;;;;12.49;45.40;101091.22;4985674;28;20027;-88
2023/03/14 10:40:41;;;;;;;6.82;3.33;;;;;;;12.59;44.31;101102.84;4980310;28;20026;-83
2023/03/14 10:43:11;;;;;;;5.15;3.35;;;;;;;12.51;44.67;101090.22;4995676;28;20030;-85
2023/03/14 10:45:38;;;;;;;5.53;3.70;;;;;;;12.95;43.41;101083.69;4998483;28;20053;-92
2023/03/14 10:48:24;;;;;;;3.58;3.17;;;;;;;12.96;44.48;101091.41;4996493;28;20029;-88
2023/03/14 10:50:54;;;;;;;5.45;3.60;;;;;;;12.85;44.43;101076.38;4977455;28;20491;-92
2023/03/14 10:53:20;;;;;;;6.55;3.42;;;;;;;12.70;44.15;101074.59;4992932;28;20026;-92
2023/03/14 10:55:45;;;;;;;4.03;3.25;;;;;;;12.60;44.20;101052.59;4985564;28;20029;-89
2023/03/14 10:58:19;;;;;;;3.97;3.20;;;;;;;12.39;44.54;101030.31;5008296;28;20109;-88
2023/03/14 11:01:09;;;;;;;4.90;3.15;;;;;;;12.54;44.59;101055.50;4976410;28;20036;-92
2023/03/14 11:03:35;;;;;;;5.18;3.88;;;;;;;12.44;45.11;101036.94;4986019;28;20053;-91
2023/03/14 11:06:14;;;;;;;3.35;2.50;;;;;;;12.43;44.65;101018.88;4996557;28;20030;-89
2023/03/14 11:08:47;;;;;;;5.82;3.28;;;;;;;12.40;44.80;100995.69;4980888;28;20038;-88
2023/03/14 11:11:16;;;;;;;3.78;3.25;;;;;;;12.45;44.90;100991.09;4993197;28;20033;-95
2023/03/14 11:13:52;;;;;;;9.73;7.05;;;;;;;12.50;45.34;100996.91;5012831;28;20026;-84
2023/03/14 11:16:23;;;;;;;7.28;3.78;;;;;;;12.52;45.25;100971.69;5012956;28;20036;-88
2023/03/14 11:18:51;;;;;;;4.47;3.65;;;;;;;12.72;44.85;100984.47;4998634;28;20102;-94
2023/03/14 11:21:47;;;;;;;4.32;2.88;;;;;;;12.82;44.59;100972.69;4991685;28;20026;-89
2023/03/14 11:24:28;;;;;;;4.32;3.17;;;;;;;12.88;44.06;100967.19;5004093;28;20470;-88
2023/03/14 11:27:05;;;;;;;4.40;2.65;;;;;;;13.04;44.76;100964.59;5012465;28;20037;-91
2023/03/14 11:29:36;;;;;;;3.53;2.83;;;;;;;13.24;43.66;100955.75;4999468;28;20104;-89